createdAt,value
2018-06-21T02:51:43.285Z,48.00
2018-06-21T02:52:43.238Z,52.00
2018-06-21T02:53:43.216Z,56.00
2018-06-21T02:54:43.195Z,68.00
2018-06-21T02:55:43.175Z,72.00
2018-06-21T02:56:43.153Z,84.00
2018-06-21T02:57:43.130Z,88.00
2018-06-21T02:58:43.110Z,100.00
2018-06-21T02:59:43.104Z,108.00
2018-06-21T03:00:43.069Z,120.00
2018-06-21T03:01:43.048Z,132.00
2018-06-21T03:02:43.026Z,144.00
2018-06-21T03:03:43.014Z,152.00
2018-06-21T03:04:42.986Z,168.00
2018-06-21T03:05:42.967Z,180.00
2018-06-21T03:06:42.946Z,196.00
2018-06-21T03:07:42.925Z,212.00
2018-06-21T03:08:42.907Z,224.00
2018-06-21T03:09:42.890Z,236.00
2018-06-21T03:10:42.866Z,252.00
2018-06-21T03:11:42.846Z,268.00
2018-06-21T03:12:42.827Z,280.00
2018-06-21T03:13:42.804Z,296.00
2018-06-21T03:14:42.785Z,308.00
2018-06-21T03:15:42.766Z,324.00
2018-06-21T03:16:42.747Z,340.00
2018-06-21T03:17:42.727Z,352.00
2018-06-21T03:18:42.706Z,372.00
2018-06-21T03:19:42.684Z,388.00
2018-06-21T03:20:42.703Z,400.00
2018-06-21T03:21:42.647Z,416.00
2018-06-21T03:22:42.627Z,428.00
2018-06-21T03:23:42.605Z,436.00
2018-06-21T03:24:42.702Z,448.00
2018-06-21T03:25:42.566Z,452.00
2018-06-21T03:26:42.546Z,464.00
2018-06-21T03:27:42.525Z,476.00
2018-06-21T03:28:42.506Z,488.00
2018-06-21T03:29:42.485Z,504.00
2018-06-21T03:30:42.465Z,524.00
2018-06-21T03:31:42.447Z,540.00
2018-06-21T03:32:42.425Z,544.00
2018-06-21T03:33:42.406Z,556.00
2018-06-21T03:34:42.385Z,568.00
2018-06-21T03:35:42.367Z,576.00
2018-06-21T03:36:42.346Z,584.00
2018-06-21T03:37:42.328Z,600.00
2018-06-21T03:38:42.309Z,624.00
2018-06-21T03:39:42.289Z,656.00
2018-06-21T03:40:42.269Z,692.00
2018-06-21T03:41:42.248Z,724.00
2018-06-21T03:42:42.227Z,744.00
2018-06-21T03:43:42.208Z,768.00
2018-06-21T03:44:42.190Z,788.00
2018-06-21T03:45:42.172Z,832.00
2018-06-21T03:46:42.147Z,904.00
2018-06-21T03:47:42.129Z,980.00
2018-06-21T03:48:42.110Z,996.00
2018-06-21T03:49:42.091Z,1004.00
2018-06-21T03:50:42.071Z,1048.00
2018-06-21T03:51:42.052Z,1072.00
2018-06-21T03:52:42.032Z,1048.00
2018-06-21T03:53:42.013Z,1008.00
2018-06-21T03:54:41.999Z,976.00
2018-06-21T03:55:41.973Z,952.00
2018-06-21T03:56:41.954Z,900.00
2018-06-21T03:57:41.937Z,872.00
2018-06-21T03:58:41.914Z,852.00
2018-06-21T03:59:41.900Z,856.00
2018-06-21T04:00:41.876Z,888.00
2018-06-21T04:01:41.857Z,932.00
2018-06-21T04:02:41.834Z,988.00
2018-06-21T04:03:41.820Z,1068.00
2018-06-21T04:04:41.800Z,1184.00
2018-06-21T04:05:41.779Z,1352.00
2018-06-21T04:06:41.759Z,1540.00
2018-06-21T04:07:41.740Z,1748.00
2018-06-21T04:08:41.721Z,1968.00
2018-06-21T04:09:41.702Z,2144.00
2018-06-21T04:10:41.682Z,2212.00
2018-06-21T04:11:41.664Z,2336.00
2018-06-21T04:12:41.644Z,2544.00
2018-06-21T04:13:41.628Z,2660.00
2018-06-21T04:14:41.605Z,2708.00
2018-06-21T04:15:41.586Z,2764.00
2018-06-21T04:16:41.565Z,2772.00
2018-06-21T04:17:41.549Z,2704.00
2018-06-21T04:18:41.530Z,2644.00
2018-06-21T04:19:41.512Z,2600.00
2018-06-21T04:20:41.491Z,2576.00
2018-06-21T04:21:41.476Z,2616.00
2018-06-21T04:22:41.451Z,2640.00
2018-06-21T04:23:41.442Z,2644.00
2018-06-21T04:24:41.413Z,2572.00
2018-06-21T04:25:41.395Z,2408.00
2018-06-21T04:26:41.374Z,2204.00
2018-06-21T04:27:41.356Z,2152.00
2018-06-21T04:28:41.337Z,2124.00
2018-06-21T04:29:41.322Z,2096.00
2018-06-21T04:30:41.300Z,2012.00
2018-06-21T04:31:41.279Z,2120.00
2018-06-21T04:32:41.262Z,2236.00
2018-06-21T04:33:41.242Z,2500.00
2018-06-21T04:34:41.223Z,2612.00
2018-06-21T04:35:41.209Z,2732.00
2018-06-21T04:36:41.184Z,2860.00
2018-06-21T04:37:41.165Z,2768.00
2018-06-21T04:38:41.146Z,2592.00
2018-06-21T04:39:41.164Z,2436.00
2018-06-21T04:40:41.122Z,2516.00
2018-06-21T04:41:41.090Z,2736.00
2018-06-21T04:42:41.070Z,2784.00
2018-06-21T04:43:41.053Z,2736.00
2018-06-21T04:44:41.039Z,2668.00
2018-06-21T04:45:41.016Z,2616.00
2018-06-21T04:46:40.995Z,2708.00
2018-06-21T04:47:40.977Z,2768.00
2018-06-21T04:48:40.963Z,2612.00
2018-06-21T04:49:40.938Z,2304.00
2018-06-21T04:50:40.937Z,2280.00
2018-06-21T04:51:40.977Z,1892.00
2018-06-21T04:52:40.890Z,1896.00
2018-06-21T04:53:40.860Z,2056.00
2018-06-21T04:54:40.845Z,2020.00
2018-06-21T04:55:40.827Z,2236.00
2018-06-21T04:56:40.807Z,2872.00
2018-06-21T04:57:40.789Z,3072.00
2018-06-21T04:58:40.768Z,3108.00
2018-06-21T04:59:40.750Z,2508.00
2018-06-21T05:00:40.735Z,1876.00
2018-06-21T05:01:40.710Z,1544.00
2018-06-21T05:02:40.699Z,1432.00
2018-06-21T05:03:40.676Z,1256.00
2018-06-21T05:04:40.658Z,1044.00
2018-06-21T05:05:40.640Z,1220.00
2018-06-21T05:06:40.617Z,1328.00
2018-06-21T05:07:40.600Z,1384.00
2018-06-21T05:08:40.581Z,1724.00
2018-06-21T05:09:40.564Z,1708.00
2018-06-21T05:10:40.543Z,1204.00
2018-06-21T05:11:40.520Z,880.00
2018-06-21T05:12:40.507Z,616.00
2018-06-21T05:13:40.503Z,464.00
2018-06-21T05:14:40.469Z,448.00
2018-06-21T05:15:40.450Z,384.00
2018-06-21T05:16:40.431Z,308.00
2018-06-21T05:17:40.412Z,280.00
2018-06-21T05:18:40.394Z,464.00
2018-06-21T05:19:40.376Z,1368.00
2018-06-21T05:20:40.357Z,2232.00
2018-06-21T05:21:40.337Z,1840.00
2018-06-21T05:22:40.319Z,1356.00
2018-06-21T05:23:40.299Z,1228.00
2018-06-21T05:24:40.281Z,1132.00
2018-06-21T05:25:40.260Z,824.00
2018-06-21T05:26:40.241Z,556.00
2018-06-21T05:27:40.220Z,576.00
2018-06-21T05:28:40.204Z,676.00
2018-06-21T05:29:40.192Z,880.00
2018-06-21T05:30:40.163Z,1016.00
2018-06-21T05:31:40.147Z,980.00
2018-06-21T05:32:40.125Z,884.00
2018-06-21T05:33:40.106Z,1080.00
2018-06-21T05:34:40.096Z,1236.00
2018-06-21T05:35:40.065Z,1180.00
2018-06-21T05:36:40.052Z,912.00
2018-06-21T05:37:40.040Z,912.00
2018-06-21T05:38:40.009Z,764.00
2018-06-21T05:39:39.987Z,980.00
2018-06-21T05:40:39.970Z,1072.00
2018-06-21T05:41:39.948Z,1312.00
2018-06-21T05:42:39.925Z,1724.00
2018-06-21T05:43:39.907Z,1980.00
2018-06-21T05:44:39.887Z,1948.00
2018-06-21T05:45:39.868Z,1964.00
2018-06-21T05:46:39.850Z,2044.00
2018-06-21T05:47:39.830Z,2148.00
2018-06-21T05:48:39.811Z,2164.00
2018-06-21T05:49:39.789Z,2368.00
2018-06-21T05:50:39.768Z,3008.00
2018-06-21T05:51:39.753Z,3960.00
2018-06-21T05:52:39.731Z,6076.00
2018-06-21T05:53:39.710Z,8440.00
2018-06-21T05:54:39.687Z,9876.00
2018-06-21T05:55:39.666Z,9588.00
2018-06-21T05:56:39.650Z,8056.00
2018-06-21T05:57:39.631Z,6152.00
2018-06-21T05:58:39.606Z,4172.00
2018-06-21T05:59:39.586Z,3976.00
2018-06-21T06:00:39.566Z,3248.00
2018-06-21T06:01:39.548Z,2308.00
2018-06-21T06:02:39.528Z,2256.00
2018-06-21T06:03:39.508Z,1592.00
2018-06-21T06:04:39.488Z,1624.00
2018-06-21T06:05:39.473Z,1756.00
2018-06-21T06:06:39.449Z,2108.00
2018-06-21T06:07:39.431Z,1996.00
2018-06-21T06:08:39.599Z,1676.00
2018-06-21T06:09:39.387Z,1840.00
2018-06-21T06:10:39.366Z,1292.00
2018-06-21T06:11:39.346Z,964.00
2018-06-21T06:12:39.325Z,964.00
2018-06-21T06:13:39.307Z,1156.00
2018-06-21T06:14:39.287Z,1540.00
2018-06-21T06:15:39.265Z,1584.00
2018-06-21T06:16:39.249Z,1632.00
2018-06-21T06:17:39.230Z,1864.00
2018-06-21T06:18:39.206Z,2388.00
2018-06-21T06:19:39.188Z,2524.00
2018-06-21T06:20:39.167Z,2608.00
2018-06-21T06:21:39.146Z,2736.00
2018-06-21T06:22:39.127Z,2280.00
2018-06-21T06:23:39.112Z,2704.00
2018-06-21T06:24:39.085Z,2184.00
2018-06-21T06:25:39.064Z,2036.00
2018-06-21T06:26:39.048Z,1460.00
2018-06-21T06:27:39.024Z,1692.00
2018-06-21T06:28:39.063Z,1692.00
2018-06-21T06:29:38.980Z,1704.00
2018-06-21T06:30:38.962Z,1472.00
2018-06-21T06:31:38.940Z,1376.00
2018-06-21T06:32:38.922Z,1344.00
2018-06-21T06:33:38.903Z,1464.00
2018-06-21T06:34:38.917Z,1624.00
2018-06-21T06:35:38.860Z,1708.00
2018-06-21T06:36:38.843Z,1700.00
2018-06-21T06:37:38.820Z,1888.00
2018-06-21T06:38:38.804Z,2412.00
2018-06-21T06:39:38.782Z,2620.00
2018-06-21T06:40:38.764Z,2708.00
2018-06-21T06:41:38.737Z,3164.00
2018-06-21T06:42:38.716Z,3276.00
2018-06-21T06:43:38.695Z,3072.00
2018-06-21T06:44:38.676Z,3376.00
2018-06-21T06:45:38.656Z,3376.00
2018-06-21T06:46:38.636Z,3928.00
2018-06-21T06:47:38.617Z,4672.00
2018-06-21T06:48:38.595Z,5744.00
2018-06-21T06:49:38.577Z,6888.00
2018-06-21T06:50:38.551Z,6352.00
2018-06-21T06:51:38.532Z,4868.00
2018-06-21T06:52:38.512Z,4200.00
2018-06-21T06:53:38.486Z,4008.00
2018-06-21T06:54:38.526Z,3608.00
2018-06-21T06:55:38.450Z,3016.00
2018-06-21T06:56:38.429Z,3168.00
2018-06-21T06:57:38.413Z,2956.00
2018-06-21T06:58:38.389Z,3136.00
2018-06-21T06:59:38.367Z,2728.00
2018-06-21T07:00:38.347Z,2336.00
2018-06-21T07:01:38.334Z,2472.00
2018-06-21T07:02:38.307Z,2896.00
2018-06-21T07:03:38.286Z,3208.00
2018-06-21T07:04:38.266Z,3416.00
2018-06-21T07:05:38.249Z,5168.00
2018-06-21T07:06:38.227Z,4972.00
2018-06-21T07:07:38.211Z,3128.00
2018-06-21T07:08:38.187Z,1964.00
2018-06-21T07:09:38.169Z,2032.00
2018-06-21T07:10:38.145Z,1708.00
2018-06-21T07:11:38.171Z,1608.00
2018-06-21T07:12:38.105Z,1840.00
2018-06-21T07:13:38.089Z,2232.00
2018-06-21T07:14:38.064Z,2156.00
2018-06-21T07:15:38.044Z,1852.00
2018-06-21T07:16:38.025Z,2100.00
2018-06-21T07:17:38.003Z,2324.00
2018-06-21T07:18:37.983Z,1732.00
2018-06-21T07:19:37.964Z,1480.00
2018-06-21T07:20:37.943Z,1680.00
2018-06-21T07:21:37.922Z,2316.00
2018-06-21T07:22:37.901Z,2640.00
2018-06-21T07:23:37.883Z,2020.00
2018-06-21T07:24:37.861Z,2020.00
2018-06-21T07:25:37.840Z,2744.00
2018-06-21T07:26:37.820Z,3352.00
2018-06-21T07:27:37.800Z,3012.00
2018-06-21T07:28:37.776Z,2932.00
2018-06-21T07:29:37.760Z,3524.00
2018-06-21T07:30:37.737Z,5436.00
2018-06-21T07:31:37.722Z,8404.00
2018-06-21T07:32:37.695Z,9480.00
2018-06-21T07:33:37.715Z,11856.00
2018-06-21T07:34:37.659Z,13052.00
2018-06-21T07:35:37.637Z,14372.00
2018-06-21T07:36:37.615Z,15724.00
2018-06-21T07:37:37.596Z,16024.00
2018-06-21T07:38:37.575Z,16536.00
2018-06-21T07:39:37.573Z,16832.00
2018-06-21T07:40:37.539Z,16140.00
2018-06-21T07:41:37.517Z,13916.00
2018-06-21T07:42:37.496Z,10700.00
2018-06-21T07:43:37.475Z,6732.00
2018-06-21T07:44:37.459Z,5064.00
2018-06-21T07:45:37.432Z,5648.00
2018-06-21T07:46:37.421Z,7184.00
2018-06-21T07:47:37.396Z,9316.00
2018-06-21T07:48:37.382Z,9576.00
2018-06-21T07:49:37.359Z,8084.00
2018-06-21T07:50:37.337Z,7788.00
2018-06-21T07:51:37.320Z,8096.00
2018-06-21T07:52:37.299Z,8432.00
2018-06-21T07:53:37.279Z,8460.00
2018-06-21T07:54:37.263Z,8284.00
2018-06-21T07:55:37.241Z,8336.00
2018-06-21T07:56:37.221Z,8756.00
2018-06-21T07:57:37.201Z,8424.00
2018-06-21T07:58:37.180Z,8804.00
2018-06-21T07:59:37.160Z,10716.00
2018-06-21T08:00:37.148Z,11928.00
2018-06-21T08:01:37.124Z,12400.00
2018-06-21T08:02:37.108Z,12756.00
2018-06-21T08:03:37.083Z,13308.00
2018-06-21T08:04:37.070Z,14684.00
2018-06-21T08:05:37.044Z,17440.00
2018-06-21T08:06:37.026Z,18016.00
2018-06-21T08:07:37.003Z,18272.00
2018-06-21T08:08:36.986Z,17952.00
2018-06-21T08:09:36.972Z,16788.00
2018-06-21T08:10:36.946Z,15516.00
2018-06-21T08:11:36.928Z,14108.00
2018-06-21T08:12:36.908Z,14068.00
2018-06-21T08:13:36.891Z,14996.00
2018-06-21T08:14:36.869Z,16832.00
2018-06-21T08:15:36.852Z,19392.00
2018-06-21T08:16:36.831Z,18464.00
2018-06-21T08:17:36.813Z,17856.00
2018-06-21T08:18:36.796Z,16568.00
2018-06-21T08:19:36.776Z,14000.00
2018-06-21T08:20:36.758Z,13168.00
2018-06-21T08:21:36.739Z,13960.00
2018-06-21T08:22:36.720Z,15216.00
2018-06-21T08:23:36.702Z,14036.00
2018-06-21T08:24:36.682Z,19680.00
2018-06-21T08:25:36.666Z,19104.00
2018-06-21T08:26:36.647Z,17824.00
2018-06-21T08:27:36.628Z,16600.00
2018-06-21T08:28:36.609Z,11928.00
2018-06-21T08:29:36.593Z,10316.00
2018-06-21T08:30:36.574Z,10712.00
2018-06-21T08:31:36.554Z,13992.00
2018-06-21T08:32:36.532Z,17792.00
2018-06-21T08:33:36.523Z,19264.00
2018-06-21T08:34:36.500Z,18400.00
2018-06-21T08:35:36.483Z,16536.00
2018-06-21T08:36:36.458Z,15404.00
2018-06-21T08:37:36.448Z,17180.00
2018-06-21T08:38:36.428Z,16896.00
2018-06-21T08:39:36.411Z,15772.00
2018-06-21T08:40:36.393Z,20000.00
2018-06-21T08:41:36.374Z,19136.00
2018-06-21T08:42:36.355Z,23808.00
2018-06-21T08:43:36.337Z,25984.00
2018-06-21T08:44:36.321Z,21440.00
2018-06-21T08:45:36.302Z,16024.00
2018-06-21T08:46:36.282Z,11348.00
2018-06-21T08:47:36.265Z,10900.00
2018-06-21T08:48:36.248Z,11932.00
2018-06-21T08:49:36.230Z,13016.00
2018-06-21T08:50:36.213Z,16116.00
2018-06-21T08:51:36.195Z,18208.00
2018-06-21T08:52:36.179Z,18304.00
2018-06-21T08:53:36.162Z,16960.00
2018-06-21T08:54:36.144Z,19808.00
2018-06-21T08:55:36.125Z,21024.00
2018-06-21T08:56:36.107Z,18400.00
2018-06-21T08:57:36.091Z,18336.00
2018-06-21T08:58:36.073Z,17856.00
2018-06-21T08:59:36.055Z,21728.00
2018-06-21T09:00:36.038Z,22144.00
2018-06-21T09:01:36.025Z,22176.00
2018-06-21T09:02:36.004Z,21152.00
2018-06-21T09:03:35.988Z,22592.00
2018-06-21T09:04:35.973Z,23296.00
2018-06-21T09:05:35.954Z,22464.00
2018-06-21T09:06:35.937Z,22432.00
2018-06-21T09:07:35.924Z,25248.00
2018-06-21T09:08:35.904Z,23104.00
2018-06-21T09:09:35.948Z,23616.00
2018-06-21T09:10:35.872Z,26784.00
2018-06-21T09:11:35.894Z,28832.00
2018-06-21T09:12:35.840Z,28608.00
2018-06-21T09:13:35.828Z,28608.00
2018-06-21T09:14:35.807Z,27040.00
2018-06-21T09:15:35.790Z,26208.00
2018-06-21T09:16:35.778Z,26144.00
2018-06-21T09:17:35.762Z,26176.00
2018-06-21T09:18:35.742Z,24896.00
2018-06-21T09:19:35.726Z,23296.00
2018-06-21T09:20:35.711Z,17376.00
2018-06-21T09:21:35.695Z,9824.00
2018-06-21T09:22:35.682Z,6352.00
2018-06-21T09:23:35.672Z,4564.00
2018-06-21T09:24:35.651Z,3188.00
2018-06-21T09:25:35.629Z,2276.00
2018-06-21T09:26:35.617Z,2016.00
2018-06-21T09:27:35.600Z,2768.00
2018-06-21T09:28:35.579Z,2984.00
2018-06-21T09:29:35.565Z,3280.00
2018-06-21T09:30:35.546Z,3604.00
2018-06-21T09:31:35.529Z,4040.00
2018-06-21T09:32:35.515Z,4696.00
2018-06-21T09:33:35.495Z,5580.00
2018-06-21T09:34:35.476Z,6628.00
2018-06-21T09:35:35.459Z,7932.00
2018-06-21T09:36:35.442Z,10232.00
2018-06-21T09:37:35.420Z,12380.00
2018-06-21T09:38:35.401Z,11780.00
2018-06-21T09:39:35.386Z,13296.00
2018-06-21T09:40:35.364Z,12036.00
2018-06-21T09:41:35.345Z,16608.00
2018-06-21T09:42:35.323Z,18208.00
2018-06-21T09:43:35.305Z,14240.00
2018-06-21T09:44:35.286Z,14128.00
2018-06-21T09:45:35.266Z,17504.00
2018-06-21T09:46:35.249Z,14520.00
2018-06-21T09:47:35.233Z,14592.00
2018-06-21T09:48:35.215Z,18368.00
2018-06-21T09:49:35.196Z,14780.00
2018-06-21T09:50:35.175Z,15080.00
2018-06-21T09:51:35.158Z,14932.00
2018-06-21T09:52:35.203Z,15596.00
2018-06-21T09:53:35.124Z,16832.00
2018-06-21T09:54:35.108Z,18560.00
2018-06-21T09:55:35.090Z,21376.00
2018-06-21T09:56:35.076Z,27456.00
2018-06-21T09:57:35.094Z,25024.00
2018-06-21T09:58:35.040Z,17080.00
2018-06-21T09:59:35.025Z,21312.00
2018-06-21T10:00:35.011Z,23072.00
2018-06-21T10:01:34.994Z,25312.00
2018-06-21T10:02:34.979Z,19616.00
2018-06-21T10:03:34.961Z,25216.00
2018-06-21T10:04:34.945Z,16928.00
2018-06-21T10:05:34.931Z,16168.00
2018-06-21T10:06:34.920Z,14572.00
2018-06-21T10:07:34.901Z,17856.00
2018-06-21T10:08:34.888Z,21536.00
2018-06-21T10:09:34.873Z,24416.00
2018-06-21T10:10:34.853Z,22624.00
2018-06-21T10:11:34.841Z,12632.00
2018-06-21T10:12:34.825Z,11820.00
2018-06-21T10:13:34.815Z,18912.00
2018-06-21T10:14:34.795Z,16204.00
2018-06-21T10:15:34.779Z,15900.00
2018-06-21T10:16:34.766Z,16896.00
2018-06-21T10:17:34.751Z,17440.00
2018-06-21T10:18:34.749Z,17536.00
2018-06-21T10:19:34.721Z,18368.00
2018-06-21T10:20:34.739Z,19616.00
2018-06-21T10:21:34.692Z,21792.00
2018-06-21T10:22:34.678Z,23296.00
2018-06-21T10:23:34.663Z,11100.00
2018-06-21T10:24:34.652Z,22720.00
2018-06-21T10:25:34.636Z,22720.00
2018-06-21T10:26:34.624Z,25312.00
2018-06-21T10:27:34.609Z,15448.00
2018-06-21T10:28:34.594Z,15848.00
2018-06-21T10:29:34.574Z,23136.00
2018-06-21T10:30:34.567Z,14088.00
2018-06-21T10:31:34.554Z,14976.00
2018-06-21T10:32:34.539Z,17220.00
2018-06-21T10:33:34.526Z,17536.00
2018-06-21T10:34:34.510Z,17276.00
2018-06-21T10:35:34.495Z,23456.00
2018-06-21T10:36:34.488Z,23360.00
2018-06-21T10:37:34.468Z,34272.00
2018-06-21T10:38:34.454Z,22592.00
2018-06-21T10:39:34.435Z,21344.00
2018-06-21T10:40:34.424Z,20608.00
2018-06-21T10:41:34.408Z,17696.00
2018-06-21T10:42:34.397Z,15244.00
2018-06-21T10:43:34.379Z,24160.00
2018-06-21T10:44:34.363Z,21792.00
2018-06-21T10:45:34.346Z,20928.00
2018-06-21T10:46:34.333Z,20800.00
2018-06-21T10:47:34.318Z,20384.00
2018-06-21T10:48:34.305Z,20160.00
2018-06-21T10:49:34.287Z,20192.00
2018-06-21T10:50:34.272Z,20320.00
2018-06-21T10:51:34.259Z,21568.00
2018-06-21T10:52:34.244Z,23488.00
2018-06-21T10:53:34.232Z,26208.00
2018-06-21T10:54:34.217Z,29984.00
2018-06-21T10:55:34.201Z,30496.00
2018-06-21T10:56:34.191Z,17568.00
2018-06-21T10:57:34.177Z,19360.00
2018-06-21T10:58:34.163Z,18720.00
2018-06-21T10:59:34.149Z,17952.00
2018-06-21T11:00:34.136Z,27616.00
2018-06-21T11:01:34.128Z,14452.00
2018-06-21T11:02:34.116Z,13104.00
2018-06-21T11:03:34.096Z,23392.00
2018-06-21T11:04:34.085Z,25728.00
2018-06-21T11:05:34.073Z,15992.00
2018-06-21T11:06:34.060Z,22272.00
2018-06-21T11:07:34.043Z,25664.00
2018-06-21T11:08:34.046Z,26016.00
2018-06-21T11:09:34.017Z,27008.00
2018-06-21T11:10:34.004Z,26816.00
2018-06-21T11:11:33.988Z,26240.00
2018-06-21T11:12:33.977Z,27648.00
2018-06-21T11:13:33.963Z,30944.00
2018-06-21T11:14:33.950Z,32960.00
2018-06-21T11:15:33.941Z,33920.00
2018-06-21T11:16:33.924Z,36896.00
2018-06-21T11:17:33.914Z,38240.00
2018-06-21T11:18:33.904Z,36352.00
2018-06-21T11:19:33.892Z,22848.00
2018-06-21T11:20:33.880Z,31040.00
2018-06-21T11:21:33.867Z,31168.00
2018-06-21T11:22:33.856Z,16264.00
2018-06-21T11:23:33.846Z,15804.00
2018-06-21T11:24:33.835Z,17696.00
2018-06-21T11:25:33.822Z,14944.00
2018-06-21T11:26:33.808Z,13172.00
2018-06-21T11:27:33.800Z,13448.00
2018-06-21T11:28:33.786Z,11812.00
2018-06-21T11:29:33.772Z,22528.00
2018-06-21T11:30:33.757Z,21632.00
2018-06-21T11:31:33.745Z,21600.00
2018-06-21T11:32:33.730Z,22016.00
2018-06-21T11:33:33.718Z,23360.00
2018-06-21T11:34:33.705Z,25504.00
2018-06-21T11:35:33.694Z,26912.00
2018-06-21T11:36:33.682Z,27456.00
2018-06-21T11:37:33.667Z,18784.00
2018-06-21T11:38:33.655Z,22624.00
2018-06-21T11:39:33.642Z,22432.00
2018-06-21T11:40:33.632Z,22080.00
2018-06-21T11:41:33.622Z,22784.00
2018-06-21T11:42:33.611Z,24384.00
2018-06-21T11:43:33.600Z,27136.00
2018-06-21T11:44:33.589Z,14928.00
2018-06-21T11:45:33.576Z,28256.00
2018-06-21T11:46:33.567Z,12624.00
2018-06-21T11:47:33.556Z,27328.00
2018-06-21T11:48:33.544Z,27744.00
2018-06-21T11:49:33.538Z,30080.00
2018-06-21T11:50:33.523Z,31264.00
2018-06-21T11:51:33.512Z,29408.00
2018-06-21T11:52:33.505Z,30976.00
2018-06-21T11:53:33.495Z,32608.00
2018-06-21T11:54:33.734Z,32672.00
2018-06-21T11:55:33.473Z,31360.00
2018-06-21T11:56:33.464Z,32416.00
2018-06-21T11:57:33.461Z,34016.00
2018-06-21T11:58:33.448Z,37056.00
2018-06-21T11:59:33.439Z,36800.00
2018-06-21T12:00:33.427Z,16516.00
2018-06-21T12:01:33.421Z,17132.00
2018-06-21T12:02:33.407Z,40896.00
2018-06-21T12:03:33.438Z,18816.00
2018-06-21T12:04:33.437Z,14612.00
2018-06-21T12:05:33.379Z,15328.00
2018-06-21T12:06:33.368Z,62080.00
2018-06-21T12:07:33.360Z,15372.00
2018-06-21T12:08:33.350Z,72896.00
2018-06-21T12:09:33.337Z,78080.00
2018-06-21T12:10:33.326Z,79776.00
2018-06-21T12:11:33.317Z,79616.00
2018-06-21T12:12:33.307Z,30816.00
2018-06-21T12:13:33.294Z,84608.00
2018-06-21T12:14:33.283Z,90528.00
2018-06-21T12:15:33.273Z,90016.00
2018-06-21T12:16:33.263Z,86016.00
2018-06-21T12:17:33.254Z,84704.00
2018-06-21T12:18:33.244Z,16948.00
2018-06-21T12:19:33.232Z,87552.00
2018-06-21T12:20:33.223Z,91904.00
2018-06-21T12:21:33.213Z,98176.00
2018-06-21T12:22:33.203Z,76992.00
2018-06-21T12:23:33.193Z,22432.00
2018-06-21T12:24:33.183Z,90688.00
2018-06-21T12:25:33.171Z,75488.00
2018-06-21T12:26:33.164Z,49024.00
2018-06-21T12:27:33.178Z,34976.00
2018-06-21T12:28:33.154Z,24288.00
2018-06-21T12:29:33.136Z,16960.00
2018-06-21T12:30:33.133Z,25536.00
2018-06-21T12:31:33.114Z,24800.00
2018-06-21T12:32:33.150Z,25536.00
2018-06-21T12:33:33.097Z,23936.00
2018-06-21T12:34:33.081Z,23264.00
2018-06-21T12:35:33.078Z,22464.00
2018-06-21T12:36:33.068Z,21280.00
2018-06-21T12:37:33.060Z,20128.00
2018-06-21T12:38:33.055Z,19360.00
2018-06-21T12:39:33.037Z,19968.00
2018-06-21T12:40:33.031Z,20608.00
2018-06-21T12:41:33.022Z,21632.00
2018-06-21T12:42:33.012Z,22656.00
2018-06-21T12:43:33.063Z,24320.00
2018-06-21T12:44:32.998Z,34368.00
2018-06-21T12:45:32.988Z,65632.00
2018-06-21T12:46:32.997Z,95808.00
2018-06-21T12:47:32.970Z,100864.00
2018-06-21T12:48:32.965Z,19552.00
2018-06-21T12:49:32.951Z,92416.00
2018-06-21T12:50:32.941Z,98624.00
2018-06-21T12:51:32.934Z,101280.00
2018-06-21T12:52:32.959Z,102432.00
2018-06-21T12:53:32.917Z,101920.00
2018-06-21T12:54:32.911Z,100832.00
2018-06-21T12:55:32.899Z,102176.00
2018-06-21T12:56:32.891Z,105056.00
2018-06-21T12:57:32.883Z,106112.00
2018-06-21T12:58:32.874Z,20544.00
2018-06-21T12:59:32.866Z,108736.00
2018-06-21T13:00:32.859Z,109408.00
2018-06-21T13:01:32.849Z,108576.00
2018-06-21T13:02:32.837Z,18016.00
2018-06-21T13:03:32.836Z,30848.00
2018-06-21T13:04:32.827Z,115968.00
2018-06-21T13:05:32.822Z,109280.00
2018-06-21T13:06:32.808Z,107872.00
2018-06-21T13:07:32.805Z,107104.00
2018-06-21T13:08:32.793Z,108544.00
2018-06-21T13:09:32.787Z,111168.00
2018-06-21T13:10:32.777Z,105984.00
2018-06-21T13:11:32.769Z,104768.00
2018-06-21T13:12:32.764Z,108032.00
2018-06-21T13:13:32.753Z,108448.00
2018-06-21T13:14:32.746Z,73216.00
2018-06-21T13:15:32.764Z,113536.00
2018-06-21T13:16:32.729Z,46240.00
2018-06-21T13:17:32.718Z,106688.00
2018-06-21T13:18:32.713Z,106560.00
2018-06-21T13:19:32.704Z,105312.00
2018-06-21T13:20:32.751Z,109472.00
2018-06-21T13:21:32.690Z,107168.00
2018-06-21T13:22:32.680Z,99456.00
2018-06-21T13:23:32.676Z,100640.00
2018-06-21T13:24:32.668Z,112224.00
2018-06-21T13:25:32.658Z,117248.00
2018-06-21T13:26:32.649Z,117024.00
2018-06-21T13:27:32.644Z,115840.00
2018-06-21T13:28:32.633Z,115616.00
2018-06-21T13:29:32.625Z,114688.00
2018-06-21T13:30:32.617Z,104480.00
2018-06-21T13:31:32.610Z,107328.00
2018-06-21T13:32:32.602Z,107136.00
2018-06-21T13:33:32.595Z,112224.00
2018-06-21T13:34:32.592Z,112544.00
2018-06-21T13:35:32.579Z,106528.00
2018-06-21T13:36:32.575Z,99776.00
2018-06-21T13:37:32.561Z,107328.00
2018-06-21T13:38:32.555Z,116640.00
2018-06-21T13:39:32.547Z,116640.00
2018-06-21T13:40:32.539Z,114880.00
2018-06-21T13:41:32.534Z,52672.00
2018-06-21T13:42:32.527Z,113920.00
2018-06-21T13:43:32.517Z,67648.00
2018-06-21T13:44:32.512Z,113632.00
2018-06-21T13:45:32.507Z,117600.00
2018-06-21T13:46:32.495Z,28416.00
2018-06-21T13:47:32.496Z,21824.00
2018-06-21T13:48:32.481Z,128352.00
2018-06-21T13:49:32.472Z,123104.00
2018-06-21T13:50:32.463Z,121920.00
2018-06-21T13:51:32.461Z,119584.00
2018-06-21T13:52:32.448Z,121664.00
2018-06-21T13:53:32.440Z,78944.00
2018-06-21T13:54:32.458Z,24000.00
2018-06-21T13:55:32.425Z,122016.00
2018-06-21T13:56:32.417Z,123456.00
2018-06-21T13:57:32.408Z,121984.00
2018-06-21T13:58:32.397Z,116064.00
2018-06-21T13:59:32.391Z,114688.00
2018-06-21T14:00:32.412Z,117152.00
2018-06-21T14:01:32.374Z,120768.00
2018-06-21T14:02:32.365Z,17740.00
2018-06-21T14:03:32.356Z,121504.00
2018-06-21T14:04:32.348Z,118176.00
2018-06-21T14:05:32.345Z,117152.00
2018-06-21T14:06:32.331Z,113536.00
2018-06-21T14:07:32.344Z,113120.00
2018-06-21T14:08:32.566Z,115200.00
2018-06-21T14:09:32.307Z,116672.00
2018-06-21T14:10:32.300Z,118912.00
2018-06-21T14:11:32.291Z,119936.00
2018-06-21T14:12:32.288Z,120160.00
2018-06-21T14:13:32.278Z,118880.00
2018-06-21T14:14:32.266Z,117632.00
2018-06-21T14:15:32.260Z,114688.00
2018-06-21T14:16:32.251Z,112000.00
2018-06-21T14:17:32.244Z,113216.00
2018-06-21T14:18:32.238Z,115648.00
2018-06-21T14:19:32.229Z,118304.00
2018-06-21T14:20:32.237Z,117920.00
2018-06-21T14:21:32.214Z,120224.00
2018-06-21T14:22:32.210Z,122400.00
2018-06-21T14:23:32.232Z,122688.00
2018-06-21T14:24:32.196Z,113856.00
2018-06-21T14:25:32.185Z,119392.00
2018-06-21T14:26:32.184Z,118816.00
2018-06-21T14:27:32.170Z,125760.00
2018-06-21T14:28:32.164Z,40160.00
2018-06-21T14:29:32.157Z,128704.00
2018-06-21T14:30:32.148Z,124288.00
2018-06-21T14:31:32.137Z,123296.00
2018-06-21T14:32:32.131Z,124992.00
2018-06-21T14:33:32.125Z,63936.00
2018-06-21T14:34:32.116Z,130656.00
2018-06-21T14:35:32.108Z,24128.00
2018-06-21T14:36:32.101Z,29728.00
2018-06-21T14:37:32.091Z,47776.00
2018-06-21T14:38:32.082Z,41600.00
2018-06-21T14:39:32.075Z,136416.00
2018-06-21T14:40:32.065Z,135040.00
2018-06-21T14:41:32.060Z,19520.00
2018-06-21T14:42:32.050Z,18400.00
2018-06-21T14:43:32.038Z,20896.00
2018-06-21T14:44:32.029Z,25472.00